Time;durP1;ratioP1;P1;durP2;ratioP2;P2;SDS_P1;SDS_P2;PMS_P1;PMS_P2;Temp;Humidity;BMP_temperature;BMP_pressure;BME280_temperature;BME280_humidity;BME280_pressure;Samples;Min_cycle;Max_cycle;Signal;HPM_P1;HPM_P2
2021/07/22 00:02:02;;;;;;;14.70;11.60;;;;;;;20.02;69.50;95131.19;4900316;29;20514;-81
2021/07/22 00:04:29;;;;;;;12.90;10.67;;;;;;;20.03;69.38;95129.34;4900577;29;20433;-82
2021/07/22 00:06:56;;;;;;;27.13;13.40;;;;;;;20.04;69.52;95125.69;4900233;29;20444;-82
2021/07/22 00:13:14;;;;;;;13.40;11.17;;;;;;;19.99;69.72;95120.09;4898202;29;20451;-82
2021/07/22 00:15:40;;;;;;;17.87;12.17;;;;;;;19.97;69.81;95114.09;4881361;29;20437;-81
2021/07/22 00:18:07;;;;;;;14.47;10.97;;;;;;;19.94;69.84;95117.09;4881601;29;20454;-82
2021/07/22 00:20:34;;;;;;;12.37;11.00;;;;;;;19.91;70.18;95114.81;4881969;29;21072;-82
2021/07/22 00:23:01;;;;;;;18.47;12.33;;;;;;;19.93;70.27;95118.13;4881885;29;20483;-81
2021/07/22 00:25:28;;;;;;;16.00;11.27;;;;;;;19.86;70.69;95106.53;4881157;29;20442;-82
2021/07/22 00:27:55;;;;;;;16.43;12.10;;;;;;;19.85;70.67;95110.22;4881451;29;20524;-82
2021/07/22 00:30:23;;;;;;;15.30;11.70;;;;;;;19.91;70.64;95112.16;4881492;29;20852;-82
2021/07/22 00:32:53;;;;;;;18.43;12.63;;;;;;;19.76;70.72;95104.16;4881141;29;20456;-81
2021/07/22 00:35:20;;;;;;;18.30;11.57;;;;;;;19.84;70.69;95112.06;4833571;29;20449;-82
2021/07/22 00:37:47;;;;;;;13.63;11.33;;;;;;;19.86;70.72;95104.72;4881030;29;20458;-81
2021/07/22 00:40:15;;;;;;;22.17;12.53;;;;;;;19.88;70.73;95109.84;4880461;29;20492;-81
2021/07/22 00:42:55;;;;;;;18.03;11.50;;;;;;;19.87;70.63;95102.88;4880585;29;20445;-82
2021/07/22 00:45:24;;;;;;;15.43;10.60;;;;;;;19.86;70.64;95107.38;4881246;29;20527;-82
2021/07/22 00:47:50;;;;;;;17.60;11.53;;;;;;;19.92;70.60;95106.63;4880836;29;20439;-81
2021/07/22 00:50:17;;;;;;;15.90;11.13;;;;;;;19.90;70.47;95099.84;4880653;29;20499;-82
2021/07/22 00:52:44;;;;;;;13.77;10.73;;;;;;;19.86;70.74;95095.88;4880949;29;20456;-81
2021/07/22 00:55:14;;;;;;;19.97;12.40;;;;;;;19.88;70.56;95101.88;4880578;29;20938;-82
2021/07/22 00:57:41;;;;;;;14.87;11.53;;;;;;;19.89;70.81;95098.19;4880054;29;20461;-81
2021/07/22 01:00:10;;;;;;;15.93;11.03;;;;;;;19.88;70.59;95104.53;4879664;29;20822;-82
2021/07/22 01:02:39;;;;;;;13.97;10.63;;;;;;;19.81;70.71;95104.44;4879501;29;20462;-82
2021/07/22 01:05:07;;;;;;;15.00;11.13;;;;;;;19.81;70.97;95093.78;4880429;29;20508;-83
2021/07/22 01:07:34;;;;;;;17.17;12.23;;;;;;;19.82;71.04;95094.59;4880775;29;20444;-82
2021/07/22 01:10:01;;;;;;;21.53;12.23;;;;;;;19.85;71.06;95107.56;4881463;29;20546;-81
2021/07/22 01:12:28;;;;;;;15.80;12.00;;;;;;;19.86;70.75;95106.53;4880411;29;20446;-81
2021/07/22 01:14:55;;;;;;;14.50;10.43;;;;;;;19.84;71.07;95101.41;4893905;29;20578;-81
2021/07/22 01:17:30;;;;;;;16.43;11.00;;;;;;;19.79;70.83;95104.63;4899448;29;20528;-81
2021/07/22 01:20:01;;;;;;;15.80;10.60;;;;;;;19.83;70.79;95102.41;4899249;29;20452;-81
2021/07/22 01:22:30;;;;;;;18.17;11.97;;;;;;;19.87;70.86;95108.19;4899578;29;20808;-81
2021/07/22 01:24:57;;;;;;;15.40;10.80;;;;;;;19.82;70.78;95110.59;4898925;29;21027;-81
2021/07/22 01:27:24;;;;;;;13.10;10.90;;;;;;;19.85;70.90;95100.38;4899057;29;20441;-81
2021/07/22 01:29:51;;;;;;;15.80;12.13;;;;;;;19.98;70.60;95121.91;4899262;29;20459;-82
2021/07/22 01:32:19;;;;;;;21.13;11.53;;;;;;;20.02;70.22;95111.72;4850549;29;20488;-81
2021/07/22 01:34:46;;;;;;;18.60;12.70;;;;;;;20.01;69.98;95104.75;4899728;29;20519;-82
2021/07/22 01:37:14;;;;;;;14.50;11.17;;;;;;;20.04;69.88;95109.69;4898632;29;20445;-81
2021/07/22 01:39:42;;;;;;;14.70;10.57;;;;;;;20.02;70.25;95106.41;4899383;29;20440;-81
2021/07/22 01:42:10;;;;;;;14.23;11.43;;;;;;;19.93;70.18;95099.47;4898598;29;20526;-82
2021/07/22 01:44:37;;;;;;;14.70;10.63;;;;;;;19.88;70.63;95104.53;4898794;29;20446;-82
2021/07/22 02:58:33;;;;;;;20.30;11.13;;;;;;;19.29;74.30;95115.81;4894728;29;20513;-81
2021/07/22 03:01:01;;;;;;;13.80;9.90;;;;;;;19.34;74.39;95120.59;4879588;29;20523;-82
2021/07/22 03:03:28;;;;;;;12.97;9.57;;;;;;;19.33;74.53;95110.97;4879030;29;20455;-83
2021/07/22 03:05:55;;;;;;;15.00;9.90;;;;;;;19.31;74.70;95124.44;4883570;29;20463;-82
2021/07/22 03:08:22;;;;;;;13.30;9.43;;;;;;;19.34;74.69;95118.78;4882609;29;20455;-82
2021/07/22 03:10:50;;;;;;;12.37;9.93;;;;;;;19.33;74.52;95118.94;4883326;29;20889;-82
2021/07/22 03:13:17;;;;;;;19.33;10.90;;;;;;;19.36;74.72;95115.94;4882542;29;20476;-81
2021/07/22 03:15:45;;;;;;;14.70;10.30;;;;;;;19.34;74.53;95118.78;4882750;29;20444;-81
2021/07/22 03:18:18;;;;;;;13.70;10.10;;;;;;;19.40;74.65;95122.56;4882340;29;20447;-82
2021/07/22 03:20:45;;;;;;;13.60;10.43;;;;;;;19.31;74.58;95119.13;4882656;29;20449;-82
2021/07/22 03:23:14;;;;;;;23.30;10.93;;;;;;;19.44;74.39;95129.19;4882201;29;20933;-82
2021/07/22 03:25:41;;;;;;;14.10;10.30;;;;;;;19.38;74.49;95116.59;4882310;29;20437;-82
2021/07/22 03:28:08;;;;;;;12.53;10.17;;;;;;;19.36;74.50;95115.94;4882208;29;20546;-82
2021/07/22 03:30:35;;;;;;;16.77;11.27;;;;;;;19.43;74.27;95117.72;4882059;29;20916;-82
2021/07/22 03:33:03;;;;;;;16.47;9.97;;;;;;;19.46;74.12;95105.88;4882206;29;20440;-84
2021/07/22 03:35:30;;;;;;;12.47;10.10;;;;;;;19.53;74.93;95100.66;4882428;29;20535;-81
2021/07/22 03:38:00;;;;;;;12.30;10.60;;;;;;;19.60;73.56;95113.09;4882044;29;20446;-81
2021/07/22 03:40:27;;;;;;;15.67;11.07;;;;;;;19.70;73.64;95100.38;4882258;29;20479;-80
2021/07/22 03:42:55;;;;;;;15.60;11.07;;;;;;;19.83;73.07;95113.06;4882122;29;20448;-80
2021/07/22 03:45:21;;;;;;;14.57;10.97;;;;;;;19.92;72.90;95116.47;4882310;29;20445;-82
2021/07/22 03:47:48;;;;;;;12.60;9.23;;;;;;;19.97;72.83;95120.25;4881869;29;20445;-81
2021/07/22 03:50:17;;;;;;;16.87;10.47;;;;;;;20.10;72.24;95114.28;4882140;29;20448;-81
2021/07/22 03:52:44;;;;;;;12.73;9.97;;;;;;;20.18;72.04;95116.03;4834265;29;20488;-80
2021/07/22 03:55:12;;;;;;;13.37;9.03;;;;;;;20.22;71.16;95118.13;4849213;29;20445;-80
2021/07/22 03:57:39;;;;;;;18.23;12.17;;;;;;;20.25;71.32;95125.78;4882042;29;20426;-81
2021/07/22 04:00:07;;;;;;;13.70;9.93;;;;;;;20.28;71.45;95125.44;4847905;29;20473;-81
2021/07/22 04:02:34;;;;;;;12.03;9.17;;;;;;;20.21;71.73;95124.47;4900330;29;20797;-81
2021/07/22 04:05:01;;;;;;;14.57;10.60;;;;;;;20.25;71.81;95128.47;4901135;29;20443;-82
2021/07/22 04:07:29;;;;;;;18.90;11.27;;;;;;;20.17;71.74;95120.53;4901201;29;20466;-80
2021/07/22 04:09:56;;;;;;;16.50;12.53;;;;;;;20.34;71.68;95130.00;4852162;29;20448;-81
2021/07/22 04:12:23;;;;;;;13.50;10.33;;;;;;;20.40;71.18;95129.31;4900025;29;20483;-80
2021/07/22 04:14:50;;;;;;;15.07;11.17;;;;;;;20.41;71.47;95128.28;4900418;29;20826;-80
2021/07/22 04:17:17;;;;;;;18.33;10.53;;;;;;;20.25;71.16;95136.47;4900357;29;20436;-80
2021/07/22 04:19:44;;;;;;;15.40;9.90;;;;;;;20.15;72.07;95146.53;4900323;29;20433;-80
2021/07/22 04:22:13;;;;;;;17.33;11.40;;;;;;;20.10;72.20;95148.94;4900535;29;20520;-80
2021/07/22 04:24:41;;;;;;;17.60;11.80;;;;;;;20.10;72.23;95141.75;4901028;29;20543;-80
2021/07/22 04:27:08;;;;;;;11.73;10.50;;;;;;;20.11;73.06;95148.75;4899936;29;20447;-80
2021/07/22 04:29:35;;;;;;;11.17;10.03;;;;;;;20.30;72.25;95147.38;4899683;29;20892;-80
2021/07/22 04:32:03;;;;;;;17.43;11.07;;;;;;;20.29;72.13;95147.56;4852094;29;20491;-80
2021/07/22 04:34:29;;;;;;;19.33;11.97;;;;;;;20.47;72.22;95157.88;4899962;29;20830;-82
2021/07/22 04:36:56;;;;;;;20.43;11.77;;;;;;;20.53;71.37;95147.34;4899679;29;20450;-81
2021/07/22 04:39:23;;;;;;;17.07;9.83;;;;;;;20.50;70.71;95139.69;4900220;29;20448;-84
2021/07/22 04:41:52;;;;;;;12.20;9.80;;;;;;;20.36;71.39;95143.16;4899778;29;20452;-82
2021/07/22 04:44:19;;;;;;;16.80;11.13;;;;;;;20.25;72.10;95139.13;4899914;29;20532;-83
2021/07/22 04:46:45;;;;;;;18.07;11.43;;;;;;;20.14;72.25;95157.38;4899419;29;20964;-82
2021/07/22 04:49:12;;;;;;;14.67;11.10;;;;;;;19.94;73.65;95146.41;4899578;29;20451;-82
2021/07/22 04:51:39;;;;;;;16.53;11.13;;;;;;;19.84;73.65;95149.34;4899249;29;20489;-82
2021/07/22 04:54:06;;;;;;;18.70;11.13;;;;;;;19.84;74.07;95154.66;4900213;29;20523;-86
2021/07/22 04:56:33;;;;;;;21.10;11.80;;;;;;;19.84;74.89;95145.84;4900196;29;20463;-84
2021/07/22 04:59:02;;;;;;;21.53;11.60;;;;;;;19.78;74.65;95153.56;4900184;29;20574;-85
2021/07/22 05:01:29;;;;;;;18.03;10.60;;;;;;;19.80;76.12;95150.72;4899773;29;20555;-84
2021/07/22 05:03:56;;;;;;;20.93;11.07;;;;;;;19.88;74.77;95153.28;4900489;29;20554;-88
2021/07/22 05:06:23;;;;;;;19.37;11.30;;;;;;;20.00;74.79;95153.69;4899921;29;20464;-86
2021/07/22 05:08:50;;;;;;;15.87;10.47;;;;;;;20.26;74.06;95155.94;4899686;29;21025;-87
2021/07/22 05:11:17;;;;;;;14.60;11.57;;;;;;;20.44;72.62;95152.91;4899664;29;20527;-86
2021/07/22 05:13:44;;;;;;;13.53;11.33;;;;;;;20.60;72.55;95158.06;4899340;29;20481;-85
2021/07/22 05:16:12;;;;;;;13.50;9.83;;;;;;;20.68;71.17;95157.97;4899437;29;20448;-86
2021/07/22 05:18:40;;;;;;;14.87;11.33;;;;;;;21.00;71.18;95154.88;4899514;29;20531;-86
2021/07/22 05:21:07;;;;;;;17.70;10.77;;;;;;;21.53;68.61;95147.47;4899650;29;20529;-86
2021/07/22 05:23:35;;;;;;;17.73;10.07;;;;;;;22.13;66.66;95156.00;4899091;29;20451;-85
2021/07/22 05:26:04;;;;;;;12.90;9.90;;;;;;;22.67;63.89;95145.44;4899091;29;20943;-86
2021/07/22 05:28:32;;;;;;;15.23;10.13;;;;;;;23.23;62.83;95150.66;4898366;29;20499;-85
2021/07/22 05:30:58;;;;;;;15.83;9.83;;;;;;;23.55;61.15;95153.59;4899210;29;20459;-86
2021/07/22 05:36:48;;;;;;;11.50;9.23;;;;;;;23.94;60.00;95159.03;4897909;29;20437;-84
2021/07/22 05:39:15;;;;;;;14.27;9.67;;;;;;;24.29;58.63;95151.63;4899112;29;20886;-85
2021/07/22 05:41:42;;;;;;;13.50;9.63;;;;;;;24.58;57.00;95160.25;4898965;29;20850;-86
2021/07/22 05:44:09;;;;;;;12.93;8.77;;;;;;;24.80;55.76;95174.22;4851340;29;20455;-85
2021/07/22 05:46:36;;;;;;;10.93;8.33;;;;;;;24.98;54.59;95166.31;4898883;29;20450;-85
2021/07/22 05:49:03;;;;;;;11.93;9.93;;;;;;;25.29;54.37;95165.59;4898911;29;20877;-85
2021/07/22 05:51:32;;;;;;;13.00;9.47;;;;;;;25.20;54.04;95154.28;4898717;29;20488;-85
2021/07/22 05:54:01;;;;;;;11.30;9.10;;;;;;;24.96;53.86;95169.22;4898712;29;20818;-85
2021/07/22 05:56:28;;;;;;;13.63;9.30;;;;;;;24.94;54.69;95170.47;4898532;29;20432;-85
2021/07/22 05:58:55;;;;;;;13.77;10.40;;;;;;;25.10;53.93;95172.69;4865730;29;20486;-85
2021/07/22 06:01:22;;;;;;;11.83;9.67;;;;;;;25.29;53.67;95165.59;4899595;29;20467;-85
2021/07/22 06:03:49;;;;;;;11.17;7.93;;;;;;;25.45;52.35;95165.09;4898647;29;20447;-85
2021/07/22 06:06:16;;;;;;;12.23;9.57;;;;;;;25.73;52.49;95169.28;4898754;29;20928;-86
2021/07/22 06:08:43;;;;;;;9.67;8.67;;;;;;;26.00;50.75;95169.91;4899128;29;20520;-86
2021/07/22 06:11:13;;;;;;;16.07;8.80;;;;;;;26.18;49.77;95170.00;4898887;29;20480;-85
2021/07/22 06:13:40;;;;;;;8.10;7.30;;;;;;;26.45;48.95;95168.75;4898420;29;20495;-85
2021/07/22 06:16:10;;;;;;;14.50;6.90;;;;;;;26.39;47.47;95160.75;4898739;29;20531;-85
2021/07/22 06:18:37;;;;;;;9.10;7.43;;;;;;;26.42;48.57;95171.88;4898546;29;20449;-85
2021/07/22 06:21:04;;;;;;;8.07;5.60;;;;;;;26.17;47.49;95176.41;4899835;29;20817;-85
2021/07/22 06:23:31;;;;;;;6.80;6.10;;;;;;;26.30;46.87;95173.59;4898608;29;20447;-85
2021/07/22 06:25:59;;;;;;;6.00;4.97;;;;;;;26.65;47.73;95171.25;4898416;29;20538;-85
2021/07/22 06:28:28;;;;;;;7.30;6.60;;;;;;;26.68;47.50;95168.13;4898605;29;21020;-84
2021/07/22 06:30:55;;;;;;;9.70;7.97;;;;;;;27.04;47.53;95170.03;4898879;29;20464;-85
2021/07/22 06:33:23;;;;;;;12.00;8.37;;;;;;;26.93;46.61;95165.34;4898335;29;20484;-86
2021/07/22 06:35:50;;;;;;;10.63;7.37;;;;;;;26.36;48.01;95169.25;4898599;29;20452;-86
2021/07/22 06:38:17;;;;;;;9.83;7.27;;;;;;;26.47;47.42;95169.34;4900257;29;20475;-86
2021/07/22 06:40:44;;;;;;;7.67;6.57;;;;;;;26.30;46.89;95170.91;4902454;29;20800;-86
2021/07/22 06:43:11;;;;;;;8.30;7.00;;;;;;;26.34;46.85;95169.47;4901264;29;20960;-86
2021/07/22 06:45:41;;;;;;;11.07;7.47;;;;;;;26.40;46.88;95175.84;4900963;29;20465;-86
2021/07/22 06:48:08;;;;;;;7.43;5.90;;;;;;;26.72;46.70;95173.88;4901038;29;20464;-86
2021/07/22 06:50:36;;;;;;;6.10;5.50;;;;;;;26.97;45.04;95171.13;4900804;29;20539;-86
2021/07/22 06:53:03;;;;;;;6.80;6.20;;;;;;;27.12;45.20;95171.56;4900666;29;20576;-85
2021/07/22 06:55:30;;;;;;;8.07;6.30;;;;;;;27.06;43.94;95162.53;4900978;29;20433;-86
2021/07/22 06:57:57;;;;;;;5.60;5.10;;;;;;;26.62;44.80;95163.63;4901179;29;20559;-86
2021/07/22 07:00:24;;;;;;;6.30;5.53;;;;;;;26.53;45.34;95159.56;4901160;29;21031;-85
2021/07/22 07:02:53;;;;;;;7.73;6.93;;;;;;;26.48;45.39;95149.47;4900481;29;20455;-86
2021/07/22 07:05:20;;;;;;;7.27;6.57;;;;;;;26.65;45.14;95154.28;4901192;29;20532;-86
2021/07/22 07:07:47;;;;;;;6.53;5.93;;;;;;;26.77;45.76;95153.31;4901107;29;20452;-86
2021/07/22 07:10:14;;;;;;;7.50;6.73;;;;;;;27.01;44.34;95145.41;4900495;29;20527;-86
2021/07/22 07:12:41;;;;;;;6.07;5.47;;;;;;;27.30;44.31;95154.56;4900843;29;20837;-86
2021/07/22 07:15:09;;;;;;;7.27;5.53;;;;;;;27.46;43.09;95137.75;4900831;29;20831;-87
2021/07/22 07:17:36;;;;;;;10.47;5.80;;;;;;;27.56;43.44;95148.81;4900507;29;20452;-86
2021/07/22 07:20:05;;;;;;;6.80;5.37;;;;;;;27.70;42.13;95144.91;4900520;29;20461;-86
2021/07/22 07:22:32;;;;;;;6.50;5.87;;;;;;;27.33;41.62;95135.25;4901204;29;20449;-87
2021/07/22 07:24:59;;;;;;;6.50;5.27;;;;;;;27.42;41.89;95145.47;4900894;29;20461;-86
2021/07/22 07:27:26;;;;;;;5.73;4.97;;;;;;;27.57;41.28;95147.78;4900460;29;20532;-87
2021/07/22 07:29:53;;;;;;;7.27;5.13;;;;;;;27.58;42.41;95148.59;4900608;29;20535;-86
2021/07/22 07:32:20;;;;;;;6.83;5.07;;;;;;;27.58;41.39;95138.63;4900341;29;20864;-85
2021/07/22 07:34:47;;;;;;;5.83;4.37;;;;;;;27.45;41.61;95138.81;4900251;29;20449;-86
2021/07/22 07:37:15;;;;;;;9.37;5.60;;;;;;;27.43;42.57;95144.44;4900289;29;20455;-86
2021/07/22 07:39:42;;;;;;;5.83;5.20;;;;;;;27.56;41.21;95143.44;4867218;29;20457;-87
2021/07/22 07:42:09;;;;;;;4.97;3.93;;;;;;;27.53;40.46;95133.13;4900409;29;20475;-86
2021/07/22 07:44:36;;;;;;;9.33;4.97;;;;;;;27.64;40.59;95135.03;4900334;29;20455;-86
2021/07/22 07:47:04;;;;;;;4.57;4.17;;;;;;;27.60;40.40;95133.00;4900411;29;20553;-87
2021/07/22 07:49:31;;;;;;;5.50;4.70;;;;;;;27.45;39.85;95134.25;4899861;29;20884;-86
2021/07/22 07:51:58;;;;;;;5.97;4.53;;;;;;;27.55;39.32;95133.69;4900166;29;20969;-88
2021/07/22 07:54:27;;;;;;;7.13;5.23;;;;;;;27.85;40.75;95135.56;4899712;29;20453;-87
2021/07/22 07:56:54;;;;;;;4.80;4.27;;;;;;;27.62;38.96;95137.16;4900114;29;20936;-87
2021/07/22 07:59:21;;;;;;;9.77;4.97;;;;;;;27.54;40.21;95132.06;4899808;29;20579;-87
2021/07/22 08:01:49;;;;;;;5.10;4.50;;;;;;;27.68;40.70;95136.22;4899586;29;20953;-86
2021/07/22 08:04:16;;;;;;;6.60;4.30;;;;;;;28.00;38.82;95131.38;4899826;29;20433;-88
2021/07/22 08:06:43;;;;;;;4.20;3.80;;;;;;;28.12;37.83;95133.28;4900292;29;20461;-86
2021/07/22 08:09:10;;;;;;;4.83;4.33;;;;;;;28.21;37.39;95129.16;4900356;29;20576;-87
2021/07/22 08:11:38;;;;;;;7.90;4.80;;;;;;;28.26;36.91;95132.84;4900499;29;20499;-88
2021/07/22 08:14:06;;;;;;;9.67;5.13;;;;;;;28.46;37.69;95135.19;4899847;29;20579;-88
2021/07/22 08:16:32;;;;;;;4.83;4.43;;;;;;;28.62;36.85;95133.66;4866704;29;20553;-87
2021/07/22 08:18:59;;;;;;;4.40;4.00;;;;;;;28.72;37.32;95142.00;4900031;29;20890;-87
2021/07/22 08:21:26;;;;;;;6.07;4.50;;;;;;;28.52;37.30;95141.53;4899425;29;20999;-87
2021/07/22 08:23:55;;;;;;;5.80;4.67;;;;;;;28.74;37.44;95137.19;4899754;29;20489;-87
2021/07/22 08:26:22;;;;;;;6.60;4.50;;;;;;;28.62;36.38;95133.66;4899580;29;20445;-87
2021/07/22 08:28:50;;;;;;;5.67;4.17;;;;;;;28.64;36.59;95136.97;4899628;29;20465;-88
2021/07/22 08:31:19;;;;;;;5.17;4.40;;;;;;;28.73;38.03;95135.53;4899700;29;20991;-86
2021/07/22 08:33:46;;;;;;;9.20;4.67;;;;;;;28.90;36.47;95136.47;4899522;29;20545;-89
2021/07/22 08:36:13;;;;;;;6.73;4.20;;;;;;;28.66;35.20;95140.25;4899634;29;20968;-87
2021/07/22 08:38:40;;;;;;;4.20;3.80;;;;;;;28.06;36.21;95149.34;4899865;29;20472;-87
2021/07/22 08:41:08;;;;;;;6.30;3.97;;;;;;;27.80;36.93;95136.28;4899469;29;20556;-87
2021/07/22 08:43:39;;;;;;;4.33;3.57;;;;;;;27.63;37.13;95135.28;4850472;29;20517;-88
2021/07/22 08:46:07;;;;;;;4.50;4.03;;;;;;;27.69;38.07;95137.88;4898800;29;20449;-88
2021/07/22 08:48:36;;;;;;;5.57;3.77;;;;;;;27.65;36.40;95127.78;4899155;29;20449;-87
2021/07/22 08:51:04;;;;;;;5.83;4.10;;;;;;;27.98;38.21;95143.44;4899059;29;20532;-87
2021/07/22 08:53:31;;;;;;;7.57;4.10;;;;;;;28.22;38.04;95139.72;4899248;29;20488;-87
2021/07/22 08:56:00;;;;;;;4.13;3.80;;;;;;;28.33;36.63;95140.81;4899042;29;20531;-88
2021/07/22 08:58:28;;;;;;;5.13;4.13;;;;;;;28.19;37.14;95131.28;4898812;29;20469;-87
2021/07/22 09:00:57;;;;;;;4.30;3.90;;;;;;;28.04;36.92;95134.41;4898856;29;20452;-85
2021/07/22 09:03:25;;;;;;;4.70;4.10;;;;;;;27.98;38.51;95138.06;4898172;29;20560;-86
2021/07/22 09:05:52;;;;;;;4.70;4.30;;;;;;;27.80;37.41;95128.19;4898618;29;20559;-85
2021/07/22 09:08:19;;;;;;;5.23;4.70;;;;;;;27.65;38.25;95133.16;4898872;29;20453;-84
2021/07/22 09:11:05;;;;;;;8.37;4.40;;;;;;;27.23;37.88;95130.41;4898768;29;20452;-87
2021/07/22 09:13:32;;;;;;;7.50;5.03;;;;;;;26.86;40.26;95124.19;4899880;29;20484;-86
2021/07/22 09:15:59;;;;;;;4.77;4.33;;;;;;;26.74;39.88;95124.13;4899936;29;20479;-86
2021/07/22 09:18:31;;;;;;;10.53;4.60;;;;;;;26.57;40.48;95127.63;4899522;29;20437;-86
2021/07/22 09:27:42;;;;;;;8.40;4.77;;;;;;;26.45;40.13;95122.16;4898397;29;20436;-85
2021/07/22 09:30:11;;;;;;;5.47;4.30;;;;;;;26.30;41.53;95127.84;4900364;29;20447;-83
2021/07/22 09:32:42;;;;;;;4.30;3.90;;;;;;;26.11;42.15;95120.81;4899598;29;20455;-84
2021/07/22 09:35:12;;;;;;;6.77;4.70;;;;;;;25.92;42.06;95118.06;4866006;29;20445;-85
2021/07/22 09:44:34;;;;;;;6.13;4.00;;;;;;;25.85;42.12;95121.84;4880070;29;20935;-84
2021/07/22 09:47:02;;;;;;;5.10;4.50;;;;;;;25.72;43.51;95122.75;4880521;29;20506;-84
2021/07/22 09:49:34;;;;;;;4.37;3.90;;;;;;;25.70;42.69;95118.66;4880937;29;20628;-85
2021/07/22 09:52:03;;;;;;;4.73;4.33;;;;;;;25.56;43.37;95117.91;4884843;29;20476;-84
2021/07/22 09:54:34;;;;;;;4.00;3.60;;;;;;;25.19;43.20;95127.63;4899432;29;20495;-85
2021/07/22 09:57:03;;;;;;;4.40;4.00;;;;;;;25.06;43.91;95128.50;4899191;29;20445;-84
2021/07/22 09:59:30;;;;;;;5.37;4.87;;;;;;;24.86;44.51;95125.03;4899456;29;20539;-84
2021/07/22 10:08:06;;;;;;;6.63;4.20;;;;;;;24.78;46.36;95125.28;4859091;29;20601;-85
2021/07/22 10:10:35;;;;;;;4.53;3.50;;;;;;;24.73;45.74;95117.06;4814658;29;20513;-85
2021/07/22 10:13:03;;;;;;;6.93;3.70;;;;;;;24.83;45.10;95117.41;4859413;29;20494;-83
2021/07/22 10:15:35;;;;;;;4.40;3.83;;;;;;;24.95;45.85;95115.72;4859644;29;20946;-84
2021/07/22 10:18:04;;;;;;;4.00;3.70;;;;;;;25.22;47.04;95122.66;4859412;29;20802;-84
2021/07/22 10:20:33;;;;;;;4.90;4.47;;;;;;;25.33;43.79;95113.06;4859517;29;20450;-85
2021/07/22 10:23:01;;;;;;;5.83;4.60;;;;;;;25.52;42.65;95114.00;4859701;29;20673;-85
2021/07/22 10:25:29;;;;;;;3.50;3.20;;;;;;;25.72;42.41;95112.00;4859516;29;20533;-85
2021/07/22 10:27:59;;;;;;;4.97;3.70;;;;;;;25.86;43.97;95116.25;4859627;29;20507;-84
2021/07/22 10:30:26;;;;;;;3.90;3.60;;;;;;;25.81;47.05;95109.91;4859869;29;20461;-83
2021/07/22 10:33:12;;;;;;;5.40;4.17;;;;;;;25.90;44.24;95114.78;4859528;29;20848;-84
2021/07/22 10:35:39;;;;;;;4.83;4.30;;;;;;;25.94;44.50;95105.22;4880942;29;20452;-84
2021/07/22 10:38:10;;;;;;;5.23;4.40;;;;;;;26.01;45.27;95098.94;4898623;29;20536;-84
2021/07/22 10:40:57;;;;;;;5.33;4.70;;;;;;;26.09;46.07;95101.38;4898883;29;20543;-84
2021/07/22 10:43:42;;;;;;;5.50;3.93;;;;;;;26.00;44.62;95100.81;4898773;29;20441;-78
2021/07/22 10:46:11;;;;;;;4.60;4.20;;;;;;;26.00;44.60;95091.94;4865257;29;20440;-80
2021/07/22 10:48:39;;;;;;;3.63;3.43;;;;;;;25.88;44.75;95095.34;4897684;29;20453;-76
2021/07/22 10:51:08;;;;;;;4.80;4.40;;;;;;;25.83;46.55;95097.88;4897629;29;20455;-76
2021/07/22 10:53:44;;;;;;;4.57;4.10;;;;;;;25.77;45.30;95098.75;4897396;29;20841;-76
2021/07/22 10:56:13;;;;;;;6.50;4.30;;;;;;;25.64;45.68;95093.44;4898071;29;20546;-76
2021/07/22 10:58:51;;;;;;;4.40;4.00;;;;;;;25.50;45.73;95089.22;4897209;29;20490;-76
2021/07/22 11:01:57;;;;;;;4.57;4.17;;;;;;;25.51;47.37;95080.94;4897512;29;20452;-76
2021/07/22 11:04:45;;;;;;;5.40;4.90;;;;;;;25.53;46.29;95086.91;4897670;29;20460;-76
2021/07/22 11:07:26;;;;;;;4.20;3.80;;;;;;;25.36;47.05;95085.78;4897210;29;20471;-75
2021/07/22 11:09:58;;;;;;;8.33;4.00;;;;;;;25.27;46.04;95085.22;4848561;29;20503;-78
2021/07/22 11:12:48;;;;;;;5.40;4.50;;;;;;;25.23;47.83;95078.63;4898893;29;20495;-76
2021/07/22 11:15:40;;;;;;;3.90;3.60;;;;;;;25.67;48.72;95084.97;4898085;29;20437;-78
2021/07/22 11:18:39;;;;;;;7.00;4.30;;;;;;;26.20;44.40;95073.75;4865173;29;20447;-83
2021/07/22 11:41:19;;;;;;;4.93;4.50;;;;;;;26.40;44.99;95049.34;4900232;29;20491;-81
2021/07/22 11:43:47;;;;;;;4.23;3.83;;;;;;;26.34;44.53;95056.47;4899742;29;20524;-82
2021/07/22 11:46:15;;;;;;;4.50;3.30;;;;;;;26.16;44.00;95054.53;4882975;29;20836;-81
2021/07/22 11:48:43;;;;;;;6.40;4.10;;;;;;;25.93;44.14;95060.53;4882735;29;20466;-82
2021/07/22 11:51:11;;;;;;;3.93;3.63;;;;;;;25.70;44.38;95054.94;4882746;29;20446;-83
2021/07/22 11:53:39;;;;;;;4.30;3.90;;;;;;;25.64;44.80;95056.63;4892214;29;20476;-81
2021/07/22 11:56:17;;;;;;;3.23;2.93;;;;;;;25.44;45.02;95060.50;4901311;29;20445;-82
2021/07/22 11:58:50;;;;;;;7.20;3.43;;;;;;;25.26;45.76;95070.13;4901563;29;20519;-83
2021/07/22 12:01:17;;;;;;;4.73;3.23;;;;;;;25.11;44.44;95056.16;4901458;29;20523;-83
2021/07/22 12:03:47;;;;;;;5.30;3.10;;;;;;;24.88;43.99;95053.19;4901283;29;20999;-83
2021/07/22 12:06:14;;;;;;;4.90;3.10;;;;;;;24.87;43.88;95055.06;4901423;29;20449;-83
2021/07/22 12:15:26;;;;;;;9.37;3.77;;;;;;;24.92;46.22;95055.22;4899741;29;20502;-84
2021/07/22 12:17:53;;;;;;;3.20;2.90;;;;;;;25.04;45.62;95052.72;4900602;29;20543;-85
2021/07/22 12:20:20;;;;;;;12.13;7.20;;;;;;;25.04;45.86;95052.72;4900648;29;20452;-85
2021/07/22 12:22:47;;;;;;;8.57;5.73;;;;;;;25.17;46.74;95055.31;4900621;29;20439;-85
2021/07/22 12:25:16;;;;;;;4.73;4.23;;;;;;;25.22;46.14;95058.19;4900693;29;20451;-83
2021/07/22 12:27:44;;;;;;;3.87;3.57;;;;;;;25.27;45.12;95049.47;4900583;29;20474;-83
2021/07/22 12:30:16;;;;;;;7.17;3.70;;;;;;;25.24;45.87;95048.03;4900805;29;20452;-83
2021/07/22 12:32:50;;;;;;;3.30;3.00;;;;;;;25.36;45.42;95041.97;4900943;29;20443;-84
2021/07/22 12:35:33;;;;;;;3.50;2.83;;;;;;;25.47;44.83;95033.22;4900058;29;20571;-84
2021/07/22 12:38:01;;;;;;;9.53;5.13;;;;;;;25.58;45.07;95032.50;4860885;29;20458;-83
2021/07/22 12:40:35;;;;;;;8.10;4.20;;;;;;;25.72;45.62;95034.03;4860874;29;20473;-84
2021/07/22 12:43:03;;;;;;;4.13;3.73;;;;;;;25.81;42.70;95030.06;4861281;29;20453;-84
2021/07/22 12:45:30;;;;;;;4.13;3.60;;;;;;;25.93;42.82;95020.22;4846180;29;20924;-84
2021/07/22 12:47:59;;;;;;;5.20;3.90;;;;;;;26.10;44.15;95017.78;4842419;29;20645;-85
2021/07/22 12:50:30;;;;;;;5.93;3.20;;;;;;;26.28;43.80;95014.25;4842635;29;20455;-84
2021/07/22 12:52:59;;;;;;;5.43;3.63;;;;;;;26.40;44.41;95017.06;4842592;29;20454;-85
2021/07/22 12:55:30;;;;;;;4.17;3.10;;;;;;;26.47;41.23;95007.84;4842328;29;20510;-85
2021/07/22 13:01:20;;;;;;;4.03;3.70;;;;;;;26.00;41.85;95016.63;4839861;29;20483;-85
2021/07/22 13:03:50;;;;;;;3.03;2.83;;;;;;;25.84;42.84;95013.47;4841302;29;20466;-84
2021/07/22 13:06:18;;;;;;;3.67;3.37;;;;;;;25.68;43.35;95016.72;4841875;29;20470;-85
2021/07/22 13:08:45;;;;;;;3.80;3.50;;;;;;;25.62;43.09;95018.41;4842934;29;20459;-84
2021/07/22 13:11:14;;;;;;;4.50;3.10;;;;;;;25.44;43.85;95022.88;4842122;29;20447;-85
2021/07/22 13:13:43;;;;;;;6.10;3.73;;;;;;;25.42;43.92;95022.28;4842330;29;20488;-85
2021/07/22 13:16:11;;;;;;;6.30;3.37;;;;;;;25.23;43.83;95022.22;4875971;29;20453;-85
2021/07/22 13:18:38;;;;;;;5.10;3.90;;;;;;;25.23;44.45;95027.59;4881700;29;20825;-85
2021/07/22 13:21:07;;;;;;;3.63;3.33;;;;;;;25.17;44.69;95020.41;4848835;29;20453;-86
2021/07/22 13:23:34;;;;;;;3.87;3.37;;;;;;;25.10;44.85;95013.41;4881163;29;20831;-85
2021/07/22 13:26:02;;;;;;;4.33;3.43;;;;;;;25.10;44.53;95008.88;4881666;29;20455;-85
2021/07/22 13:28:29;;;;;;;3.90;3.20;;;;;;;25.17;45.14;95014.22;4863989;29;20450;-85
2021/07/22 13:30:56;;;;;;;3.77;3.37;;;;;;;25.11;44.82;95015.88;4862405;29;20549;-85
2021/07/22 13:33:23;;;;;;;4.00;3.67;;;;;;;25.15;44.34;95014.41;4862864;29;20461;-86
2021/07/22 13:35:50;;;;;;;4.10;3.80;;;;;;;25.12;45.03;95012.16;4862539;29;20481;-84
2021/07/22 13:38:31;;;;;;;4.20;3.60;;;;;;;25.16;44.54;95012.56;4842324;29;20488;-85
2021/07/22 13:41:18;;;;;;;3.73;3.30;;;;;;;25.25;44.60;95008.56;4862128;29;20478;-84
2021/07/22 13:43:47;;;;;;;4.10;3.70;;;;;;;25.32;44.44;95007.47;4863526;29;20460;-84